sensor_id;sensor_type;location;lat;lon;timestamp;temperature;humidity
36458;DHT22;22480;50.546;12.292;2023-07-29T00:02:07;17.40;99.90
36458;DHT22;22480;50.546;12.292;2023-07-29T00:04:32;17.40;99.90
36458;DHT22;22480;50.546;12.292;2023-07-29T00:06:58;17.50;99.90
36458;DHT22;22480;50.546;12.292;2023-07-29T00:09:24;17.50;99.90
36458;DHT22;22480;50.546;12.292;2023-07-29T00:11:50;17.50;99.90
36458;DHT22;22480;50.546;12.292;2023-07-29T00:14:15;17.50;99.90
36458;DHT22;22480;50.546;12.292;2023-07-29T00:16:41;17.50;99.90
36458;DHT22;22480;50.546;12.292;2023-07-29T00:19:08;17.40;99.90
36458;DHT22;22480;50.546;12.292;2023-07-29T00:21:34;17.40;99.90
36458;DHT22;22480;50.546;12.292;2023-07-29T00:24:00;17.30;99.90
36458;DHT22;22480;50.546;12.292;2023-07-29T00:26:27;17.30;99.90
36458;DHT22;22480;50.546;12.292;2023-07-29T00:28:55;17.30;99.90
36458;DHT22;22480;50.546;12.292;2023-07-29T00:31:21;17.30;99.90
36458;DHT22;22480;50.546;12.292;2023-07-29T00:33:47;17.30;99.90
36458;DHT22;22480;50.546;12.292;2023-07-29T00:36:14;17.20;99.90
36458;DHT22;22480;50.546;12.292;2023-07-29T00:38:40;17.10;99.90
36458;DHT22;22480;50.546;12.292;2023-07-29T00:41:05;16.90;99.90
36458;DHT22;22480;50.546;12.292;2023-07-29T00:43:32;16.80;99.90
36458;DHT22;22480;50.546;12.292;2023-07-29T00:45:59;16.70;99.90
36458;DHT22;22480;50.546;12.292;2023-07-29T00:48:26;16.70;99.90
36458;DHT22;22480;50.546;12.292;2023-07-29T00:50:52;16.80;99.90
36458;DHT22;22480;50.546;12.292;2023-07-29T00:53:18;16.80;99.90
36458;DHT22;22480;50.546;12.292;2023-07-29T00:55:44;16.90;99.90
36458;DHT22;22480;50.546;12.292;2023-07-29T00:58:10;16.90;99.90
36458;DHT22;22480;50.546;12.292;2023-07-29T01:00:37;16.90;99.90
36458;DHT22;22480;50.546;12.292;2023-07-29T01:03:03;17.00;99.90
36458;DHT22;22480;50.546;12.292;2023-07-29T01:05:34;17.00;99.90
36458;DHT22;22480;50.546;12.292;2023-07-29T01:11:03;17.10;99.90
36458;DHT22;22480;50.546;12.292;2023-07-29T01:16:30;17.10;99.90
36458;DHT22;22480;50.546;12.292;2023-07-29T01:18:57;17.10;99.90
36458;DHT22;22480;50.546;12.292;2023-07-29T01:21:26;17.00;99.90
36458;DHT22;22480;50.546;12.292;2023-07-29T01:23:53;17.00;99.90
36458;DHT22;22480;50.546;12.292;2023-07-29T01:26:19;17.10;99.90
36458;DHT22;22480;50.546;12.292;2023-07-29T01:28:44;17.10;99.90
36458;DHT22;22480;50.546;12.292;2023-07-29T01:31:34;17.00;99.90
36458;DHT22;22480;50.546;12.292;2023-07-29T01:34:06;17.00;99.90
36458;DHT22;22480;50.546;12.292;2023-07-29T01:36:33;17.10;99.90
36458;DHT22;22480;50.546;12.292;2023-07-29T01:39:04;17.10;99.90
36458;DHT22;22480;50.546;12.292;2023-07-29T01:41:30;17.10;99.90
36458;DHT22;22480;50.546;12.292;2023-07-29T01:43:57;17.10;99.90
36458;DHT22;22480;50.546;12.292;2023-07-29T01:46:23;17.20;99.90
36458;DHT22;22480;50.546;12.292;2023-07-29T01:48:49;17.20;99.90
36458;DHT22;22480;50.546;12.292;2023-07-29T01:51:14;17.20;99.90
36458;DHT22;22480;50.546;12.292;2023-07-29T01:53:40;17.10;99.90
36458;DHT22;22480;50.546;12.292;2023-07-29T01:56:07;17.10;99.90
36458;DHT22;22480;50.546;12.292;2023-07-29T01:58:35;17.10;99.90
36458;DHT22;22480;50.546;12.292;2023-07-29T02:01:00;17.10;99.90
36458;DHT22;22480;50.546;12.292;2023-07-29T02:03:26;17.10;99.90
36458;DHT22;22480;50.546;12.292;2023-07-29T02:05:52;17.10;99.90
36458;DHT22;22480;50.546;12.292;2023-07-29T02:08:18;17.10;99.90
36458;DHT22;22480;50.546;12.292;2023-07-29T02:10:44;17.10;99.90
36458;DHT22;22480;50.546;12.292;2023-07-29T02:13:11;17.10;99.90
36458;DHT22;22480;50.546;12.292;2023-07-29T02:15:37;17.10;99.90
36458;DHT22;22480;50.546;12.292;2023-07-29T02:18:03;17.10;99.90
36458;DHT22;22480;50.546;12.292;2023-07-29T02:20:29;17.10;99.90
36458;DHT22;22480;50.546;12.292;2023-07-29T02:22:55;17.10;99.90
36458;DHT22;22480;50.546;12.292;2023-07-29T02:25:21;17.10;99.90
36458;DHT22;22480;50.546;12.292;2023-07-29T02:27:46;17.00;99.90
36458;DHT22;22480;50.546;12.292;2023-07-29T02:30:12;17.10;99.90
36458;DHT22;22480;50.546;12.292;2023-07-29T02:32:38;17.10;99.90
36458;DHT22;22480;50.546;12.292;2023-07-29T02:35:04;17.00;99.90
36458;DHT22;22480;50.546;12.292;2023-07-29T02:37:30;17.00;99.90
36458;DHT22;22480;50.546;12.292;2023-07-29T02:39:56;17.00;99.90
36458;DHT22;22480;50.546;12.292;2023-07-29T02:42:22;16.90;99.90
36458;DHT22;22480;50.546;12.292;2023-07-29T02:44:48;16.80;99.90
36458;DHT22;22480;50.546;12.292;2023-07-29T02:47:13;16.80;99.90
36458;DHT22;22480;50.546;12.292;2023-07-29T02:49:39;16.70;99.90
36458;DHT22;22480;50.546;12.292;2023-07-29T02:52:05;16.70;99.90
36458;DHT22;22480;50.546;12.292;2023-07-29T02:54:31;16.70;99.90
36458;DHT22;22480;50.546;12.292;2023-07-29T02:56:58;16.70;99.90
36458;DHT22;22480;50.546;12.292;2023-07-29T02:59:24;16.70;99.90
36458;DHT22;22480;50.546;12.292;2023-07-29T03:01:52;16.80;99.90
36458;DHT22;22480;50.546;12.292;2023-07-29T03:04:19;16.80;99.90
36458;DHT22;22480;50.546;12.292;2023-07-29T03:06:44;16.80;99.90
36458;DHT22;22480;50.546;12.292;2023-07-29T03:09:10;16.80;99.90
36458;DHT22;22480;50.546;12.292;2023-07-29T03:11:36;16.90;99.90
36458;DHT22;22480;50.546;12.292;2023-07-29T03:14:02;16.90;99.90
36458;DHT22;22480;50.546;12.292;2023-07-29T03:16:29;16.90;99.90
36458;DHT22;22480;50.546;12.292;2023-07-29T03:18:56;17.00;99.90
36458;DHT22;22480;50.546;12.292;2023-07-29T03:21:23;17.10;99.90
36458;DHT22;22480;50.546;12.292;2023-07-29T03:23:49;17.10;99.90
36458;DHT22;22480;50.546;12.292;2023-07-29T03:26:14;17.10;99.90
36458;DHT22;22480;50.546;12.292;2023-07-29T03:28:42;17.10;99.90
36458;DHT22;22480;50.546;12.292;2023-07-29T03:31:08;17.10;99.90
36458;DHT22;22480;50.546;12.292;2023-07-29T03:33:34;17.10;99.90
36458;DHT22;22480;50.546;12.292;2023-07-29T03:36:00;17.10;99.90
36458;DHT22;22480;50.546;12.292;2023-07-29T03:38:26;17.10;99.90
36458;DHT22;22480;50.546;12.292;2023-07-29T03:40:53;17.20;99.90
36458;DHT22;22480;50.546;12.292;2023-07-29T03:43:19;17.20;99.90
36458;DHT22;22480;50.546;12.292;2023-07-29T03:45:45;17.20;99.90
36458;DHT22;22480;50.546;12.292;2023-07-29T03:48:10;17.20;99.90
36458;DHT22;22480;50.546;12.292;2023-07-29T03:50:36;17.20;99.90
36458;DHT22;22480;50.546;12.292;2023-07-29T03:53:03;17.30;99.90
36458;DHT22;22480;50.546;12.292;2023-07-29T03:55:29;17.30;99.90
36458;DHT22;22480;50.546;12.292;2023-07-29T03:57:56;17.30;99.90
36458;DHT22;22480;50.546;12.292;2023-07-29T04:00:23;17.30;99.90
36458;DHT22;22480;50.546;12.292;2023-07-29T04:02:49;17.30;99.90
36458;DHT22;22480;50.546;12.292;2023-07-29T04:05:15;17.30;99.90
36458;DHT22;22480;50.546;12.292;2023-07-29T04:07:41;17.40;99.90
36458;DHT22;22480;50.546;12.292;2023-07-29T04:10:07;17.40;99.90
36458;DHT22;22480;50.546;12.292;2023-07-29T04:12:33;17.50;99.90
36458;DHT22;22480;50.546;12.292;2023-07-29T04:14:59;17.50;99.90
36458;DHT22;22480;50.546;12.292;2023-07-29T04:17:25;17.60;99.90
36458;DHT22;22480;50.546;12.292;2023-07-29T04:19:51;17.60;99.90
36458;DHT22;22480;50.546;12.292;2023-07-29T04:22:19;17.70;99.90
36458;DHT22;22480;50.546;12.292;2023-07-29T04:24:46;17.70;99.90
36458;DHT22;22480;50.546;12.292;2023-07-29T04:27:11;17.80;99.90
36458;DHT22;22480;50.546;12.292;2023-07-29T04:29:37;17.80;99.90
36458;DHT22;22480;50.546;12.292;2023-07-29T04:32:04;17.80;99.90
36458;DHT22;22480;50.546;12.292;2023-07-29T04:34:31;17.90;99.90
36458;DHT22;22480;50.546;12.292;2023-07-29T04:36:57;18.00;99.90
36458;DHT22;22480;50.546;12.292;2023-07-29T04:39:24;18.00;99.90
36458;DHT22;22480;50.546;12.292;2023-07-29T04:41:49;18.10;99.90
36458;DHT22;22480;50.546;12.292;2023-07-29T04:44:15;18.00;99.90
36458;DHT22;22480;50.546;12.292;2023-07-29T04:46:41;18.00;99.90
36458;DHT22;22480;50.546;12.292;2023-07-29T04:49:07;18.00;99.90
36458;DHT22;22480;50.546;12.292;2023-07-29T04:51:32;18.00;99.90
36458;DHT22;22480;50.546;12.292;2023-07-29T04:53:58;18.10;99.90
36458;DHT22;22480;50.546;12.292;2023-07-29T04:56:25;18.00;99.90
36458;DHT22;22480;50.546;12.292;2023-07-29T04:58:51;18.10;99.90
36458;DHT22;22480;50.546;12.292;2023-07-29T05:01:17;18.20;99.90
36458;DHT22;22480;50.546;12.292;2023-07-29T05:03:42;18.50;99.90
36458;DHT22;22480;50.546;12.292;2023-07-29T05:06:08;19.30;99.90
36458;DHT22;22480;50.546;12.292;2023-07-29T05:08:34;20.10;99.90
36458;DHT22;22480;50.546;12.292;2023-07-29T05:11:00;20.90;99.90
36458;DHT22;22480;50.546;12.292;2023-07-29T05:13:26;21.40;99.90
36458;DHT22;22480;50.546;12.292;2023-07-29T05:15:51;21.90;99.90
36458;DHT22;22480;50.546;12.292;2023-07-29T05:18:18;22.10;99.90
36458;DHT22;22480;50.546;12.292;2023-07-29T05:20:44;22.20;99.90
36458;DHT22;22480;50.546;12.292;2023-07-29T05:23:10;22.00;99.90
36458;DHT22;22480;50.546;12.292;2023-07-29T05:25:36;22.30;99.90
36458;DHT22;22480;50.546;12.292;2023-07-29T05:28:02;22.50;99.90
36458;DHT22;22480;50.546;12.292;2023-07-29T05:30:29;22.60;99.90
36458;DHT22;22480;50.546;12.292;2023-07-29T05:33:03;22.50;99.90
36458;DHT22;22480;50.546;12.292;2023-07-29T05:35:30;23.20;99.90
36458;DHT22;22480;50.546;12.292;2023-07-29T05:37:56;23.10;99.90
36458;DHT22;22480;50.546;12.292;2023-07-29T05:40:22;23.60;99.90
36458;DHT22;22480;50.546;12.292;2023-07-29T05:42:48;24.10;99.90
36458;DHT22;22480;50.546;12.292;2023-07-29T05:45:13;24.10;99.90
36458;DHT22;22480;50.546;12.292;2023-07-29T05:47:39;24.10;99.90
36458;DHT22;22480;50.546;12.292;2023-07-29T05:50:06;22.60;99.90
36458;DHT22;22480;50.546;12.292;2023-07-29T05:52:32;21.40;99.90
36458;DHT22;22480;50.546;12.292;2023-07-29T05:54:57;20.70;99.90
36458;DHT22;22480;50.546;12.292;2023-07-29T05:57:23;20.70;99.90
36458;DHT22;22480;50.546;12.292;2023-07-29T05:59:49;20.70;99.90
36458;DHT22;22480;50.546;12.292;2023-07-29T06:02:15;21.10;99.90
36458;DHT22;22480;50.546;12.292;2023-07-29T06:04:41;21.00;99.90
36458;DHT22;22480;50.546;12.292;2023-07-29T06:07:07;21.10;99.90
36458;DHT22;22480;50.546;12.292;2023-07-29T06:09:34;20.80;99.90
36458;DHT22;22480;50.546;12.292;2023-07-29T06:11:59;20.30;99.90
36458;DHT22;22480;50.546;12.292;2023-07-29T06:14:25;20.10;99.90
36458;DHT22;22480;50.546;12.292;2023-07-29T06:16:51;20.00;99.90
36458;DHT22;22480;50.546;12.292;2023-07-29T06:19:19;19.90;99.90
36458;DHT22;22480;50.546;12.292;2023-07-29T06:21:45;19.90;99.90
36458;DHT22;22480;50.546;12.292;2023-07-29T06:24:11;19.70;99.90
36458;DHT22;22480;50.546;12.292;2023-07-29T06:26:37;19.40;99.90
36458;DHT22;22480;50.546;12.292;2023-07-29T06:29:03;19.20;99.90
36458;DHT22;22480;50.546;12.292;2023-07-29T06:31:28;19.30;99.90
36458;DHT22;22480;50.546;12.292;2023-07-29T06:33:55;19.50;99.90
36458;DHT22;22480;50.546;12.292;2023-07-29T06:36:21;19.70;99.90
36458;DHT22;22480;50.546;12.292;2023-07-29T06:38:46;20.00;99.90
36458;DHT22;22480;50.546;12.292;2023-07-29T06:41:12;20.50;99.90
36458;DHT22;22480;50.546;12.292;2023-07-29T06:43:38;21.10;99.90
36458;DHT22;22480;50.546;12.292;2023-07-29T06:46:03;21.80;99.90
36458;DHT22;22480;50.546;12.292;2023-07-29T06:48:29;22.50;99.90
36458;DHT22;22480;50.546;12.292;2023-07-29T06:50:55;23.10;99.90
36458;DHT22;22480;50.546;12.292;2023-07-29T06:53:26;24.10;99.90
36458;DHT22;22480;50.546;12.292;2023-07-29T06:55:52;24.40;99.90
36458;DHT22;22480;50.546;12.292;2023-07-29T06:58:17;24.40;99.90
36458;DHT22;22480;50.546;12.292;2023-07-29T07:00:43;24.70;99.90
36458;DHT22;22480;50.546;12.292;2023-07-29T07:03:10;24.40;99.90
36458;DHT22;22480;50.546;12.292;2023-07-29T07:05:36;23.80;99.90
36458;DHT22;22480;50.546;12.292;2023-07-29T07:08:02;23.20;99.90
36458;DHT22;22480;50.546;12.292;2023-07-29T07:10:27;22.60;99.90
36458;DHT22;22480;50.546;12.292;2023-07-29T07:12:53;22.00;99.90
36458;DHT22;22480;50.546;12.292;2023-07-29T07:15:19;21.40;99.90
36458;DHT22;22480;50.546;12.292;2023-07-29T07:17:45;21.10;99.90
36458;DHT22;22480;50.546;12.292;2023-07-29T07:20:11;20.80;99.90
36458;DHT22;22480;50.546;12.292;2023-07-29T07:22:37;20.50;99.90
36458;DHT22;22480;50.546;12.292;2023-07-29T07:25:03;20.20;99.90
36458;DHT22;22480;50.546;12.292;2023-07-29T07:27:29;19.80;99.90
36458;DHT22;22480;50.546;12.292;2023-07-29T07:29:54;19.50;99.90
36458;DHT22;22480;50.546;12.292;2023-07-29T07:32:20;19.40;99.90
36458;DHT22;22480;50.546;12.292;2023-07-29T07:34:46;19.30;99.90
36458;DHT22;22480;50.546;12.292;2023-07-29T07:37:12;19.30;99.90
36458;DHT22;22480;50.546;12.292;2023-07-29T07:39:37;19.40;99.90
36458;DHT22;22480;50.546;12.292;2023-07-29T07:42:03;19.60;99.90
36458;DHT22;22480;50.546;12.292;2023-07-29T07:44:29;19.80;99.90
36458;DHT22;22480;50.546;12.292;2023-07-29T07:46:55;19.90;99.90
36458;DHT22;22480;50.546;12.292;2023-07-29T07:49:21;20.20;99.90
36458;DHT22;22480;50.546;12.292;2023-07-29T07:51:47;20.60;99.90
36458;DHT22;22480;50.546;12.292;2023-07-29T07:54:13;21.40;99.90
36458;DHT22;22480;50.546;12.292;2023-07-29T07:56:39;22.40;99.90
36458;DHT22;22480;50.546;12.292;2023-07-29T07:59:04;23.30;99.90
36458;DHT22;22480;50.546;12.292;2023-07-29T08:01:39;23.70;99.90
36458;DHT22;22480;50.546;12.292;2023-07-29T08:04:06;24.30;99.90
36458;DHT22;22480;50.546;12.292;2023-07-29T08:06:32;24.60;99.90
36458;DHT22;22480;50.546;12.292;2023-07-29T08:08:58;24.30;99.90
36458;DHT22;22480;50.546;12.292;2023-07-29T08:11:25;24.20;99.90
36458;DHT22;22480;50.546;12.292;2023-07-29T08:13:51;24.40;99.90
36458;DHT22;22480;50.546;12.292;2023-07-29T08:16:17;24.20;99.90
36458;DHT22;22480;50.546;12.292;2023-07-29T08:18:42;23.80;99.90
36458;DHT22;22480;50.546;12.292;2023-07-29T08:21:09;23.70;99.90
36458;DHT22;22480;50.546;12.292;2023-07-29T08:23:36;23.40;99.90
36458;DHT22;22480;50.546;12.292;2023-07-29T08:26:04;23.50;99.90
36458;DHT22;22480;50.546;12.292;2023-07-29T08:28:32;23.60;99.90
36458;DHT22;22480;50.546;12.292;2023-07-29T08:30:59;23.10;99.90
36458;DHT22;22480;50.546;12.292;2023-07-29T08:33:25;22.70;99.90
36458;DHT22;22480;50.546;12.292;2023-07-29T08:35:51;22.40;99.90
36458;DHT22;22480;50.546;12.292;2023-07-29T08:38:16;22.20;99.90
36458;DHT22;22480;50.546;12.292;2023-07-29T08:40:46;22.30;99.90
36458;DHT22;22480;50.546;12.292;2023-07-29T08:43:16;22.10;99.90
36458;DHT22;22480;50.546;12.292;2023-07-29T08:45:44;21.60;99.90
36458;DHT22;22480;50.546;12.292;2023-07-29T08:48:11;21.30;99.90
36458;DHT22;22480;50.546;12.292;2023-07-29T08:50:38;21.30;99.90
36458;DHT22;22480;50.546;12.292;2023-07-29T08:53:04;21.30;99.90
36458;DHT22;22480;50.546;12.292;2023-07-29T08:55:32;21.40;99.90
36458;DHT22;22480;50.546;12.292;2023-07-29T08:58:01;21.50;99.90
36458;DHT22;22480;50.546;12.292;2023-07-29T09:00:28;21.20;99.90
36458;DHT22;22480;50.546;12.292;2023-07-29T09:02:54;21.00;99.90
36458;DHT22;22480;50.546;12.292;2023-07-29T09:05:23;20.60;99.90
36458;DHT22;22480;50.546;12.292;2023-07-29T09:07:51;20.00;99.90
36458;DHT22;22480;50.546;12.292;2023-07-29T09:10:21;19.70;99.90
36458;DHT22;22480;50.546;12.292;2023-07-29T09:12:49;19.20;99.90
36458;DHT22;22480;50.546;12.292;2023-07-29T09:15:27;19.00;99.90
36458;DHT22;22480;50.546;12.292;2023-07-29T09:17:52;18.90;99.90
36458;DHT22;22480;50.546;12.292;2023-07-29T09:20:26;19.00;99.90
36458;DHT22;22480;50.546;12.292;2023-07-29T09:22:58;19.20;99.90
36458;DHT22;22480;50.546;12.292;2023-07-29T09:25:26;19.30;99.90
36458;DHT22;22480;50.546;12.292;2023-07-29T09:27:52;19.50;99.90
36458;DHT22;22480;50.546;12.292;2023-07-29T09:30:18;19.70;99.90
36458;DHT22;22480;50.546;12.292;2023-07-29T09:32:44;19.90;99.90
36458;DHT22;22480;50.546;12.292;2023-07-29T09:35:13;20.10;99.90
36458;DHT22;22480;50.546;12.292;2023-07-29T09:37:39;20.30;99.90
36458;DHT22;22480;50.546;12.292;2023-07-29T09:40:06;20.70;99.90
36458;DHT22;22480;50.546;12.292;2023-07-29T09:42:33;21.00;99.90
36458;DHT22;22480;50.546;12.292;2023-07-29T09:44:58;21.40;99.90
36458;DHT22;22480;50.546;12.292;2023-07-29T09:47:26;21.80;99.90
36458;DHT22;22480;50.546;12.292;2023-07-29T09:49:52;22.20;99.90
36458;DHT22;22480;50.546;12.292;2023-07-29T09:52:22;22.20;99.90
36458;DHT22;22480;50.546;12.292;2023-07-29T09:54:48;22.40;99.90
36458;DHT22;22480;50.546;12.292;2023-07-29T09:57:15;22.70;99.90
36458;DHT22;22480;50.546;12.292;2023-07-29T09:59:41;22.70;99.90
36458;DHT22;22480;50.546;12.292;2023-07-29T10:02:15;22.90;99.90
36458;DHT22;22480;50.546;12.292;2023-07-29T10:04:42;22.90;99.90
36458;DHT22;22480;50.546;12.292;2023-07-29T10:07:11;22.50;99.90
36458;DHT22;22480;50.546;12.292;2023-07-29T10:09:40;22.50;99.90
36458;DHT22;22480;50.546;12.292;2023-07-29T10:12:07;22.20;99.90
36458;DHT22;22480;50.546;12.292;2023-07-29T10:14:33;22.00;99.90
36458;DHT22;22480;50.546;12.292;2023-07-29T10:17:00;21.70;99.90
36458;DHT22;22480;50.546;12.292;2023-07-29T10:19:26;21.50;99.90
36458;DHT22;22480;50.546;12.292;2023-07-29T10:21:56;21.50;99.90
36458;DHT22;22480;50.546;12.292;2023-07-29T10:24:25;21.30;99.90
36458;DHT22;22480;50.546;12.292;2023-07-29T10:26:58;21.10;99.90
36458;DHT22;22480;50.546;12.292;2023-07-29T10:29:24;20.90;99.90
36458;DHT22;22480;50.546;12.292;2023-07-29T10:31:57;20.80;99.90
36458;DHT22;22480;50.546;12.292;2023-07-29T10:34:24;20.60;99.90
36458;DHT22;22480;50.546;12.292;2023-07-29T10:36:50;20.50;99.90
36458;DHT22;22480;50.546;12.292;2023-07-29T10:39:16;20.20;99.90
36458;DHT22;22480;50.546;12.292;2023-07-29T10:42:01;19.80;99.90
36458;DHT22;22480;50.546;12.292;2023-07-29T10:47:18;19.70;99.90
36458;DHT22;22480;50.546;12.292;2023-07-29T10:49:47;19.80;99.90
36458;DHT22;22480;50.546;12.292;2023-07-29T10:52:27;19.90;99.90
36458;DHT22;22480;50.546;12.292;2023-07-29T10:54:53;19.90;99.90
36458;DHT22;22480;50.546;12.292;2023-07-29T10:57:35;19.90;99.90
36458;DHT22;22480;50.546;12.292;2023-07-29T11:00:02;19.90;99.90
36458;DHT22;22480;50.546;12.292;2023-07-29T11:02:31;19.80;99.90
36458;DHT22;22480;50.546;12.292;2023-07-29T11:04:58;19.70;99.90
36458;DHT22;22480;50.546;12.292;2023-07-29T11:07:26;19.40;99.90
36458;DHT22;22480;50.546;12.292;2023-07-29T11:10:01;19.00;99.90
36458;DHT22;22480;50.546;12.292;2023-07-29T11:17:42;17.90;99.90
36458;DHT22;22480;50.546;12.292;2023-07-29T11:20:08;17.80;99.90
36458;DHT22;22480;50.546;12.292;2023-07-29T11:22:34;17.70;99.90
36458;DHT22;22480;50.546;12.292;2023-07-29T11:25:00;17.50;99.90
36458;DHT22;22480;50.546;12.292;2023-07-29T11:27:26;17.30;99.90
36458;DHT22;22480;50.546;12.292;2023-07-29T11:30:03;17.00;99.90
36458;DHT22;22480;50.546;12.292;2023-07-29T11:32:31;16.90;99.90
36458;DHT22;22480;50.546;12.292;2023-07-29T11:35:04;16.70;99.90
36458;DHT22;22480;50.546;12.292;2023-07-29T11:37:30;16.70;99.90
36458;DHT22;22480;50.546;12.292;2023-07-29T11:39:56;16.70;99.90
36458;DHT22;22480;50.546;12.292;2023-07-29T11:42:22;16.80;99.90
36458;DHT22;22480;50.546;12.292;2023-07-29T11:44:48;17.00;99.90
36458;DHT22;22480;50.546;12.292;2023-07-29T11:47:13;17.30;99.90
36458;DHT22;22480;50.546;12.292;2023-07-29T11:49:40;17.50;99.90
36458;DHT22;22480;50.546;12.292;2023-07-29T11:52:10;17.80;99.90
36458;DHT22;22480;50.546;12.292;2023-07-29T11:54:36;18.10;99.90
36458;DHT22;22480;50.546;12.292;2023-07-29T11:57:07;18.50;99.90
36458;DHT22;22480;50.546;12.292;2023-07-29T11:59:35;18.90;99.90
36458;DHT22;22480;50.546;12.292;2023-07-29T12:02:05;19.40;99.90
36458;DHT22;22480;50.546;12.292;2023-07-29T12:04:32;20.20;99.90
36458;DHT22;22480;50.546;12.292;2023-07-29T12:06:58;21.60;99.90
36458;DHT22;22480;50.546;12.292;2023-07-29T12:09:25;22.60;99.90
36458;DHT22;22480;50.546;12.292;2023-07-29T12:11:52;22.90;99.90
36458;DHT22;22480;50.546;12.292;2023-07-29T12:14:18;22.80;99.90
36458;DHT22;22480;50.546;12.292;2023-07-29T12:16:48;22.60;99.90
36458;DHT22;22480;50.546;12.292;2023-07-29T12:19:15;22.90;99.90
36458;DHT22;22480;50.546;12.292;2023-07-29T12:21:44;23.50;99.90
36458;DHT22;22480;50.546;12.292;2023-07-29T12:24:12;24.30;99.90
36458;DHT22;22480;50.546;12.292;2023-07-29T12:26:38;24.60;99.90
36458;DHT22;22480;50.546;12.292;2023-07-29T12:31:39;23.50;99.90
36458;DHT22;22480;50.546;12.292;2023-07-29T12:34:04;23.70;99.90
36458;DHT22;22480;50.546;12.292;2023-07-29T12:36:44;24.50;99.90
36458;DHT22;22480;50.546;12.292;2023-07-29T12:39:24;25.90;99.90
36458;DHT22;22480;50.546;12.292;2023-07-29T12:41:50;25.90;99.90
36458;DHT22;22480;50.546;12.292;2023-07-29T12:44:17;25.80;99.90
36458;DHT22;22480;50.546;12.292;2023-07-29T12:46:43;25.70;99.90
36458;DHT22;22480;50.546;12.292;2023-07-29T12:49:09;25.30;99.90
36458;DHT22;22480;50.546;12.292;2023-07-29T12:51:36;25.60;99.90
36458;DHT22;22480;50.546;12.292;2023-07-29T12:54:03;25.70;99.90
36458;DHT22;22480;50.546;12.292;2023-07-29T12:56:30;24.80;99.90
36458;DHT22;22480;50.546;12.292;2023-07-29T12:58:59;24.00;99.90
36458;DHT22;22480;50.546;12.292;2023-07-29T13:01:25;24.20;99.90
36458;DHT22;22480;50.546;12.292;2023-07-29T13:03:52;24.30;99.90
36458;DHT22;22480;50.546;12.292;2023-07-29T13:06:17;24.60;99.90
36458;DHT22;22480;50.546;12.292;2023-07-29T13:08:44;24.80;99.90
36458;DHT22;22480;50.546;12.292;2023-07-29T13:11:10;25.00;99.90
36458;DHT22;22480;50.546;12.292;2023-07-29T13:13:35;25.60;99.90
36458;DHT22;22480;50.546;12.292;2023-07-29T13:16:01;25.60;99.90
36458;DHT22;22480;50.546;12.292;2023-07-29T13:18:28;25.50;99.90
36458;DHT22;22480;50.546;12.292;2023-07-29T13:20:54;25.90;99.90
36458;DHT22;22480;50.546;12.292;2023-07-29T13:23:20;26.10;99.90
36458;DHT22;22480;50.546;12.292;2023-07-29T13:25:46;26.60;99.90
36458;DHT22;22480;50.546;12.292;2023-07-29T13:28:12;26.50;99.90
36458;DHT22;22480;50.546;12.292;2023-07-29T13:30:39;26.70;99.90
36458;DHT22;22480;50.546;12.292;2023-07-29T13:33:06;26.80;99.90
36458;DHT22;22480;50.546;12.292;2023-07-29T13:35:32;27.20;96.70
36458;DHT22;22480;50.546;12.292;2023-07-29T13:37:57;27.20;98.00
36458;DHT22;22480;50.546;12.292;2023-07-29T13:40:23;27.40;92.90
36458;DHT22;22480;50.546;12.292;2023-07-29T13:42:49;26.80;95.60
36458;DHT22;22480;50.546;12.292;2023-07-29T13:45:15;26.60;94.30
36458;DHT22;22480;50.546;12.292;2023-07-29T13:47:41;26.70;93.80
36458;DHT22;22480;50.546;12.292;2023-07-29T13:50:07;26.70;86.60
36458;DHT22;22480;50.546;12.292;2023-07-29T13:52:33;26.60;95.50
36458;DHT22;22480;50.546;12.292;2023-07-29T13:54:59;26.60;93.00
36458;DHT22;22480;50.546;12.292;2023-07-29T13:57:25;26.50;92.40
36458;DHT22;22480;50.546;12.292;2023-07-29T13:59:51;26.70;94.60
36458;DHT22;22480;50.546;12.292;2023-07-29T14:02:16;27.30;92.70
36458;DHT22;22480;50.546;12.292;2023-07-29T14:04:42;27.50;82.70
36458;DHT22;22480;50.546;12.292;2023-07-29T14:07:08;27.10;86.60
36458;DHT22;22480;50.546;12.292;2023-07-29T14:09:34;27.20;80.40
36458;DHT22;22480;50.546;12.292;2023-07-29T14:11:59;27.20;85.20
36458;DHT22;22480;50.546;12.292;2023-07-29T14:14:25;26.70;87.80
36458;DHT22;22480;50.546;12.292;2023-07-29T14:16:51;26.70;91.40
36458;DHT22;22480;50.546;12.292;2023-07-29T14:19:17;26.80;90.00
36458;DHT22;22480;50.546;12.292;2023-07-29T14:21:42;27.00;83.40
36458;DHT22;22480;50.546;12.292;2023-07-29T14:24:08;27.10;79.30
36458;DHT22;22480;50.546;12.292;2023-07-29T14:26:34;27.00;80.50
36458;DHT22;22480;50.546;12.292;2023-07-29T14:28:59;27.20;81.00
36458;DHT22;22480;50.546;12.292;2023-07-29T14:31:25;27.50;79.60
36458;DHT22;22480;50.546;12.292;2023-07-29T14:33:51;27.60;72.50
36458;DHT22;22480;50.546;12.292;2023-07-29T14:36:17;27.40;72.60
36458;DHT22;22480;50.546;12.292;2023-07-29T14:38:42;27.20;81.20
36458;DHT22;22480;50.546;12.292;2023-07-29T14:41:08;27.80;75.90
36458;DHT22;22480;50.546;12.292;2023-07-29T14:43:35;27.60;73.00
36458;DHT22;22480;50.546;12.292;2023-07-29T14:46:01;27.10;78.10
36458;DHT22;22480;50.546;12.292;2023-07-29T14:48:27;26.90;80.00
36458;DHT22;22480;50.546;12.292;2023-07-29T14:50:53;26.70;83.60
36458;DHT22;22480;50.546;12.292;2023-07-29T14:53:18;26.20;92.00
36458;DHT22;22480;50.546;12.292;2023-07-29T14:55:45;26.10;94.60
36458;DHT22;22480;50.546;12.292;2023-07-29T14:58:10;26.20;91.00
36458;DHT22;22480;50.546;12.292;2023-07-29T15:00:36;26.50;81.50
36458;DHT22;22480;50.546;12.292;2023-07-29T15:03:02;26.50;83.80
36458;DHT22;22480;50.546;12.292;2023-07-29T15:05:28;26.00;92.80
36458;DHT22;22480;50.546;12.292;2023-07-29T15:07:54;25.80;93.80
36458;DHT22;22480;50.546;12.292;2023-07-29T15:10:20;25.60;96.60
36458;DHT22;22480;50.546;12.292;2023-07-29T15:12:47;25.70;93.00
36458;DHT22;22480;50.546;12.292;2023-07-29T15:15:12;26.50;93.10
36458;DHT22;22480;50.546;12.292;2023-07-29T15:17:38;27.20;77.60
36458;DHT22;22480;50.546;12.292;2023-07-29T15:20:04;27.40;73.10
36458;DHT22;22480;50.546;12.292;2023-07-29T15:22:31;26.90;71.30
36458;DHT22;22480;50.546;12.292;2023-07-29T15:24:59;26.10;75.70
36458;DHT22;22480;50.546;12.292;2023-07-29T15:27:29;25.20;83.90
36458;DHT22;22480;50.546;12.292;2023-07-29T15:29:55;24.50;94.40